WXM80 ListenWXM80 Stop

You find our weather info also at:

UK Metoffice

WeatherCloud

Weather Underground

Northeastern Weather Network

AWEKAS

Citizen Weather Observer Program (CWOP)

HAMweather, WeatherForYou, PWS Weather


Weather Underground History page Text

Daily Summary for April 24, 2017 Units:  Both    English   Metric
« Previous Day
Next Day »
Daily Weekly Monthly Yearly Custom
  High: Low: Average:
Temperature: 54.8 °F /  12.7 °C 40.7 °F /  4.8 °C 48.9 °F /  9.4 °C
Dew Point: 49.9 °F /  9.9 °C 38.6 °F /  3.7 °C 45.3 °F /  7.4 °C
Humidity: 97 % 73 % 87 %
Wind Speed: 7.2 mph /  11.6 km/h - 1.4 mph /  2.3 km/h
Wind Gust: 12.7 mph /  20.4 km/h - -
Wind:- - East
Pressure: 30.16 in /  1021.2 hPa 30.08 in /  1018.5 hPa -
Precipitation: 0.01 in /  0.25 mm    
Historical Graphs
 
 
Tabular Data for April 24, 2017
Time Temperature Dew Point Pressure Wind Wind Speed Wind Gust Humidity Rainfall Rate (Hourly)
00:03 46.9 °F /  8.3 °C 42.6 °F /  5.9 °C 30.11 in /  1019.5 hPa Calm     85 % 0.00 in /  0 mm
00:08 46.8 °F /  8.2 °C 42.2 °F /  5.7 °C 30.11 in /  1019.5 hPa Calm     84 % 0.00 in /  0 mm
00:13 46.7 °F /  8.2 °C 42.4 °F /  5.8 °C 30.12 in /  1019.9 hPa Calm     85 % 0.00 in /  0 mm
00:18 46.6 °F /  8.1 °C 42.6 °F /  5.9 °C 30.11 in /  1019.5 hPa Calm     86 % 0.00 in /  0 mm
00:23 46.5 °F /  8.1 °C 42.5 °F /  5.8 °C 30.12 in /  1019.9 hPa Calm     86 % 0.00 in /  0 mm
00:28 46.4 °F /  8 °C 42.4 °F /  5.8 °C 30.11 in /  1019.5 hPa Calm     86 % 0.00 in /  0 mm
00:31 46.3 °F /  7.9 °C 42.3 °F /  5.7 °C 30.11 in /  1019.5 hPa Calm     86 % 0.00 in /  0 mm
00:36 46.1 °F /  7.8 °C 42.1 °F /  5.6 °C 30.11 in /  1019.5 hPa Calm     86 % 0.00 in /  0 mm
00:41 46.0 °F /  7.8 °C 42.0 °F /  5.6 °C 30.11 in /  1019.5 hPa Calm     86 % 0.00 in /  0 mm
00:46 45.9 °F /  7.7 °C 41.9 °F /  5.5 °C 30.11 in /  1019.5 hPa Calm     86 % 0.00 in /  0 mm
00:51 45.8 °F /  7.7 °C 41.9 °F /  5.5 °C 30.11 in /  1019.5 hPa Calm     86 % 0.00 in /  0 mm
00:56 45.7 °F /  7.6 °C 41.8 °F /  5.4 °C 30.11 in /  1019.5 hPa Calm     86 % 0.00 in /  0 mm
01:01 45.6 °F /  7.6 °C 42.0 °F /  5.6 °C 30.11 in /  1019.5 hPa Calm     87 % 0.00 in /  0 mm
01:06 45.4 °F /  7.4 °C 41.8 °F /  5.4 °C 30.11 in /  1019.5 hPa WSW 0.1 mph /  0.2 km/h 1.2 mph /  1.9 km/h 87 % 0.00 in /  0 mm
01:11 45.3 °F /  7.4 °C 41.7 °F /  5.4 °C 30.11 in /  1019.5 hPa Calm     87 % 0.00 in /  0 mm
01:16 45.2 °F /  7.3 °C 41.6 °F /  5.3 °C 30.11 in /  1019.5 hPa Calm     87 % 0.00 in /  0 mm
01:21 45.1 °F /  7.3 °C 41.5 °F /  5.3 °C 30.11 in /  1019.5 hPa Calm     87 % 0.00 in /  0 mm
01:26 44.9 °F /  7.2 °C 41.3 °F /  5.2 °C 30.11 in /  1019.5 hPa Calm     87 % 0.00 in /  0 mm
01:31 44.8 °F /  7.1 °C 41.5 °F /  5.3 °C 30.11 in /  1019.5 hPa Calm     88 % 0.00 in /  0 mm
01:36 44.7 °F /  7.1 °C 41.4 °F /  5.2 °C 30.11 in /  1019.5 hPa Calm     88 % 0.00 in /  0 mm
01:41 44.5 °F /  6.9 °C 41.2 °F /  5.1 °C 30.11 in /  1019.5 hPa Calm     88 % 0.00 in /  0 mm
01:46 44.4 °F /  6.9 °C 41.4 °F /  5.2 °C 30.10 in /  1019.2 hPa Calm     89 % 0.00 in /  0 mm
01:51 44.2 °F /  6.8 °C 41.2 °F /  5.1 °C 30.10 in /  1019.2 hPa Calm     89 % 0.00 in /  0 mm
01:56 44.1 °F /  6.7 °C 41.1 °F /  5.1 °C 30.10 in /  1019.2 hPa Calm     89 % 0.00 in /  0 mm
02:01 44.0 °F /  6.7 °C 41.0 °F /  5 °C 30.09 in /  1018.8 hPa Calm     89 % 0.00 in /  0 mm
02:06 43.8 °F /  6.6 °C 40.8 °F /  4.9 °C 30.10 in /  1019.2 hPa Calm     89 % 0.00 in /  0 mm
02:11 43.7 °F /  6.5 °C 40.7 °F /  4.8 °C 30.10 in /  1019.2 hPa Calm     89 % 0.00 in /  0 mm
02:16 43.6 °F /  6.4 °C 40.6 °F /  4.8 °C 30.09 in /  1018.8 hPa Calm     89 % 0.00 in /  0 mm
02:21 43.4 °F /  6.3 °C 40.4 °F /  4.7 °C 30.09 in /  1018.8 hPa Calm     89 % 0.00 in /  0 mm
02:26 43.3 °F /  6.3 °C 40.3 °F /  4.6 °C 30.09 in /  1018.8 hPa Calm     89 % 0.00 in /  0 mm
02:31 43.2 °F /  6.2 °C 40.2 °F /  4.6 °C 30.09 in /  1018.8 hPa Calm     89 % 0.00 in /  0 mm
02:36 43.1 °F /  6.2 °C 40.4 °F /  4.7 °C 30.09 in /  1018.8 hPa Calm     90 % 0.00 in /  0 mm
02:42 43.0 °F /  6.1 °C 40.3 °F /  4.6 °C 30.09 in /  1018.8 hPa Calm     90 % 0.00 in /  0 mm
02:47 42.9 °F /  6.1 °C 40.2 °F /  4.6 °C 30.09 in /  1018.8 hPa Calm     90 % 0.00 in /  0 mm
02:52 42.8 °F /  6 °C 40.1 °F /  4.5 °C 30.09 in /  1018.8 hPa Calm     90 % 0.00 in /  0 mm
02:57 42.7 °F /  5.9 °C 40.0 °F /  4.4 °C 30.08 in /  1018.5 hPa Calm     90 % 0.00 in /  0 mm
03:02 42.6 °F /  5.9 °C 39.9 °F /  4.4 °C 30.08 in /  1018.5 hPa Calm     90 % 0.00 in /  0 mm
03:07 42.5 °F /  5.8 °C 39.8 °F /  4.3 °C 30.08 in /  1018.5 hPa Calm     90 % 0.00 in /  0 mm
03:12 42.3 °F /  5.7 °C 39.6 °F /  4.2 °C 30.09 in /  1018.8 hPa Calm     90 % 0.00 in /  0 mm
03:17 42.2 °F /  5.7 °C 39.5 °F /  4.2 °C 30.09 in /  1018.8 hPa Calm     90 % 0.00 in /  0 mm
03:22 42.1 °F /  5.6 °C 39.7 °F /  4.3 °C 30.09 in /  1018.8 hPa Calm     91 % 0.00 in /  0 mm
03:27 42.0 °F /  5.6 °C 39.6 °F /  4.2 °C 30.09 in /  1018.8 hPa Calm     91 % 0.00 in /  0 mm
03:32 41.9 °F /  5.5 °C 39.5 °F /  4.2 °C 30.09 in /  1018.8 hPa Calm     91 % 0.00 in /  0 mm
03:37 41.8 °F /  5.4 °C 39.4 °F /  4.1 °C 30.09 in /  1018.8 hPa WSW 0.3 mph /  0.5 km/h 1.2 mph /  1.9 km/h 91 % 0.00 in /  0 mm
03:42 41.6 °F /  5.3 °C 39.2 °F /  4 °C 30.09 in /  1018.8 hPa Calm   1.2 mph /  1.9 km/h 91 % 0.00 in /  0 mm
03:47 41.5 °F /  5.3 °C 39.1 °F /  3.9 °C 30.09 in /  1018.8 hPa Calm   1.0 mph /  1.6 km/h 91 % 0.00 in /  0 mm
03:52 41.5 °F /  5.3 °C 39.1 °F /  3.9 °C 30.09 in /  1018.8 hPa Calm   1.0 mph /  1.6 km/h 91 % 0.00 in /  0 mm
03:54 41.5 °F /  5.3 °C 39.1 °F /  3.9 °C 30.09 in /  1018.8 hPa WSW 0.1 mph /  0.2 km/h 1.2 mph /  1.9 km/h 91 % 0.00 in /  0 mm
03:59 41.4 °F /  5.2 °C 39.3 °F /  4.1 °C 30.09 in /  1018.8 hPa WSW 0.1 mph /  0.2 km/h 1.2 mph /  1.9 km/h 92 % 0.00 in /  0 mm
04:04 41.4 °F /  5.2 °C 39.3 °F /  4.1 °C 30.09 in /  1018.8 hPa Calm     92 % 0.00 in /  0 mm
04:09 41.4 °F /  5.2 °C 39.3 °F /  4.1 °C 30.09 in /  1018.8 hPa Calm     92 % 0.00 in /  0 mm
04:14 41.4 °F /  5.2 °C 39.3 °F /  4.1 °C 30.09 in /  1018.8 hPa Calm     92 % 0.00 in /  0 mm
04:19 41.4 °F /  5.2 °C 39.3 °F /  4.1 °C 30.09 in /  1018.8 hPa Calm     92 % 0.00 in /  0 mm
04:24 41.4 °F /  5.2 °C 39.3 °F /  4.1 °C 30.09 in /  1018.8 hPa Calm     92 % 0.00 in /  0 mm
04:29 41.3 °F /  5.2 °C 39.2 °F /  4 °C 30.10 in /  1019.2 hPa Calm     92 % 0.00 in /  0 mm
04:34 41.3 °F /  5.2 °C 39.2 °F /  4 °C 30.10 in /  1019.2 hPa Calm     92 % 0.00 in /  0 mm
04:39 41.2 °F /  5.1 °C 39.1 °F /  3.9 °C 30.09 in /  1018.8 hPa Calm     92 % 0.00 in /  0 mm
04:44 41.1 °F /  5.1 °C 39.0 °F /  3.9 °C 30.09 in /  1018.8 hPa Calm     92 % 0.00 in /  0 mm
04:49 41.0 °F /  5 °C 38.9 °F /  3.8 °C 30.09 in /  1018.8 hPa Calm     92 % 0.00 in /  0 mm
04:54 40.9 °F /  4.9 °C 38.8 °F /  3.8 °C 30.09 in /  1018.8 hPa Calm   1.2 mph /  1.9 km/h 92 % 0.00 in /  0 mm
04:59 40.8 °F /  4.9 °C 38.7 °F /  3.7 °C 30.10 in /  1019.2 hPa Calm   1.0 mph /  1.6 km/h 92 % 0.00 in /  0 mm
05:04 40.7 °F /  4.8 °C 38.6 °F /  3.7 °C 30.10 in /  1019.2 hPa WSW 0.1 mph /  0.2 km/h 1.2 mph /  1.9 km/h 92 % 0.00 in /  0 mm
05:09 40.8 °F /  4.9 °C 38.9 °F /  3.8 °C 30.10 in /  1019.2 hPa WSW 0.2 mph /  0.3 km/h 1.0 mph /  1.6 km/h 93 % 0.00 in /  0 mm
05:14 40.8 °F /  4.9 °C 38.9 °F /  3.8 °C 30.10 in /  1019.2 hPa WSW 0.2 mph /  0.3 km/h 1.2 mph /  1.9 km/h 93 % 0.00 in /  0 mm
05:19 40.8 °F /  4.9 °C 38.9 °F /  3.8 °C 30.11 in /  1019.5 hPa Calm     93 % 0.00 in /  0 mm
05:24 40.9 °F /  4.9 °C 39.3 °F /  4.1 °C 30.11 in /  1019.5 hPa Calm   1.2 mph /  1.9 km/h 94 % 0.00 in /  0 mm
05:29 41.1 °F /  5.1 °C 39.5 °F /  4.2 °C 30.10 in /  1019.2 hPa WSW 0.9 mph /  1.4 km/h 2.0 mph /  3.2 km/h 94 % 0.00 in /  0 mm
05:34 41.1 °F /  5.1 °C 39.5 °F /  4.2 °C 30.11 in /  1019.5 hPa WSW 1.7 mph /  2.7 km/h 3.5 mph /  5.6 km/h 94 % 0.00 in /  0 mm
05:39 41.2 °F /  5.1 °C 39.6 °F /  4.2 °C 30.11 in /  1019.5 hPa WSW 0.1 mph /  0.2 km/h 1.2 mph /  1.9 km/h 94 % 0.00 in /  0 mm
05:44 41.2 °F /  5.1 °C 39.6 °F /  4.2 °C 30.11 in /  1019.5 hPa WSW 0.3 mph /  0.5 km/h 2.3 mph /  3.7 km/h 94 % 0.00 in /  0 mm
05:49 41.3 °F /  5.2 °C 39.7 °F /  4.3 °C 30.11 in /  1019.5 hPa Calm     94 % 0.00 in /  0 mm
05:54 41.4 °F /  5.2 °C 40.1 °F /  4.5 °C 30.11 in /  1019.5 hPa Calm     95 % 0.00 in /  0 mm
05:59 41.4 °F /  5.2 °C 40.1 °F /  4.5 °C 30.11 in /  1019.5 hPa Calm     95 % 0.00 in /  0 mm
06:04 41.5 °F /  5.3 °C 40.2 °F /  4.6 °C 30.11 in /  1019.5 hPa Calm     95 % 0.00 in /  0 mm
06:09 41.5 °F /  5.3 °C 40.2 °F /  4.6 °C 30.11 in /  1019.5 hPa Calm     95 % 0.00 in /  0 mm
06:14 41.4 °F /  5.2 °C 40.1 °F /  4.5 °C 30.12 in /  1019.9 hPa Calm     95 % 0.00 in /  0 mm
06:19 41.4 °F /  5.2 °C 40.1 °F /  4.5 °C 30.12 in /  1019.9 hPa Calm     95 % 0.00 in /  0 mm
06:24 41.5 °F /  5.3 °C 40.2 °F /  4.6 °C 30.12 in /  1019.9 hPa Calm     95 % 0.00 in /  0 mm
06:29 41.5 °F /  5.3 °C 40.2 °F /  4.6 °C 30.12 in /  1019.9 hPa Calm     95 % 0.00 in /  0 mm
06:34 41.6 °F /  5.3 °C 40.3 °F /  4.6 °C 30.12 in /  1019.9 hPa Calm     95 % 0.00 in /  0 mm
06:39 41.7 °F /  5.4 °C 40.4 °F /  4.7 °C 30.12 in /  1019.9 hPa Calm     95 % 0.00 in /  0 mm
06:44 42.0 °F /  5.6 °C 40.7 °F /  4.8 °C 30.12 in /  1019.9 hPa Calm     95 % 0.00 in /  0 mm
06:49 42.3 °F /  5.7 °C 41.0 °F /  5 °C 30.12 in /  1019.9 hPa Calm     95 % 0.00 in /  0 mm
06:54 42.6 °F /  5.9 °C 41.3 °F /  5.2 °C 30.12 in /  1019.9 hPa Calm     95 % 0.00 in /  0 mm
06:59 43.1 °F /  6.2 °C 42.0 °F /  5.6 °C 30.13 in /  1020.2 hPa WSW 0.3 mph /  0.5 km/h 1.2 mph /  1.9 km/h 96 % 0.00 in /  0 mm
07:04 43.6 °F /  6.4 °C 42.5 °F /  5.8 °C 30.13 in /  1020.2 hPa Calm     96 % 0.00 in /  0 mm
07:09 44.1 °F /  6.7 °C 43.0 °F /  6.1 °C 30.13 in /  1020.2 hPa Calm     96 % 0.00 in /  0 mm
07:15 44.7 °F /  7.1 °C 43.6 °F /  6.4 °C 30.13 in /  1020.2 hPa Calm     96 % 0.00 in /  0 mm
07:20 46.0 °F /  7.8 °C 45.2 °F /  7.3 °C 30.13 in /  1020.2 hPa Calm     97 % 0.00 in /  0 mm
07:25 46.7 °F /  8.2 °C 45.9 °F /  7.7 °C 30.14 in /  1020.5 hPa SE 0.5 mph /  0.8 km/h 2.3 mph /  3.7 km/h 97 % 0.00 in /  0 mm
07:30 47.2 °F /  8.4 °C 46.4 °F /  8 °C 30.14 in /  1020.5 hPa SE 0.5 mph /  0.8 km/h 3.5 mph /  5.6 km/h 97 % 0.00 in /  0 mm
07:35 47.7 °F /  8.7 °C 46.9 °F /  8.3 °C 30.14 in /  1020.5 hPa SE 0.4 mph /  0.6 km/h 5.8 mph /  9.3 km/h 97 % 0.00 in /  0 mm
07:40 47.9 °F /  8.8 °C 47.1 °F /  8.4 °C 30.13 in /  1020.2 hPa SSE 1.9 mph /  3.1 km/h 3.5 mph /  5.6 km/h 97 % 0.00 in /  0 mm
07:45 48.1 °F /  8.9 °C 47.0 °F /  8.3 °C 30.14 in /  1020.5 hPa SE 3.6 mph /  5.8 km/h 5.8 mph /  9.3 km/h 96 % 0.00 in /  0 mm
07:50 48.2 °F /  9 °C 47.1 °F /  8.4 °C 30.14 in /  1020.5 hPa SSW 1.4 mph /  2.3 km/h 3.5 mph /  5.6 km/h 96 % 0.00 in /  0 mm
07:55 48.2 °F /  9 °C 46.8 °F /  8.2 °C 30.15 in /  1020.9 hPa SW 0.6 mph /  1 km/h 3.5 mph /  5.6 km/h 95 % 0.00 in /  0 mm
08:00 48.3 °F /  9.1 °C 47.2 °F /  8.4 °C 30.16 in /  1021.2 hPa SW 0.1 mph /  0.2 km/h 1.2 mph /  1.9 km/h 96 % 0.00 in /  0 mm
08:05 48.5 °F /  9.2 °C 47.1 °F /  8.4 °C 30.16 in /  1021.2 hPa SSE 0.2 mph /  0.3 km/h 3.5 mph /  5.6 km/h 95 % 0.00 in /  0 mm
08:10 48.6 °F /  9.2 °C 47.2 °F /  8.4 °C 30.16 in /  1021.2 hPa SSE 0.2 mph /  0.3 km/h 1.0 mph /  1.6 km/h 95 % 0.00 in /  0 mm
08:15 48.7 °F /  9.3 °C 47.3 °F /  8.5 °C 30.16 in /  1021.2 hPa Calm   1.2 mph /  1.9 km/h 95 % 0.00 in /  0 mm
08:20 48.8 °F /  9.3 °C 47.4 °F /  8.6 °C 30.16 in /  1021.2 hPa Calm   1.2 mph /  1.9 km/h 95 % 0.00 in /  0 mm
08:25 49.2 °F /  9.6 °C 47.8 °F /  8.8 °C 30.16 in /  1021.2 hPa SW 1.1 mph /  1.8 km/h 2.3 mph /  3.7 km/h 95 % 0.00 in /  0 mm
08:30 49.7 °F /  9.8 °C 48.3 °F /  9.1 °C 30.16 in /  1021.2 hPa SW 0.2 mph /  0.3 km/h 1.0 mph /  1.6 km/h 95 % 0.00 in /  0 mm
08:35 50.0 °F /  10 °C 48.6 °F /  9.2 °C 30.16 in /  1021.2 hPa Calm     95 % 0.00 in /  0 mm
08:40 50.4 °F /  10.2 °C 49.0 °F /  9.4 °C 30.15 in /  1020.9 hPa SE 1.6 mph /  2.6 km/h 3.5 mph /  5.6 km/h 95 % 0.00 in /  0 mm
08:45 50.6 °F /  10.3 °C 48.4 °F /  9.1 °C 30.15 in /  1020.9 hPa SSE 0.2 mph /  0.3 km/h 1.2 mph /  1.9 km/h 92 % 0.00 in /  0 mm
08:50 51.0 °F /  10.6 °C 48.5 °F /  9.2 °C 30.16 in /  1021.2 hPa Calm   1.2 mph /  1.9 km/h 91 % 0.00 in /  0 mm
08:55 51.7 °F /  10.9 °C 49.2 °F /  9.6 °C 30.16 in /  1021.2 hPa Calm   2.3 mph /  3.7 km/h 91 % 0.00 in /  0 mm
09:00 52.3 °F /  11.3 °C 49.5 °F /  9.7 °C 30.16 in /  1021.2 hPa SSE 0.8 mph /  1.3 km/h 2.3 mph /  3.7 km/h 90 % 0.00 in /  0 mm
09:05 53.1 °F /  11.7 °C 49.9 °F /  9.9 °C 30.15 in /  1020.9 hPa NE 2.5 mph /  4 km/h 3.5 mph /  5.6 km/h 89 % 0.00 in /  0 mm
09:10 53.4 °F /  11.9 °C 49.6 °F /  9.8 °C 30.16 in /  1021.2 hPa NE 1.5 mph /  2.4 km/h 3.5 mph /  5.6 km/h 87 % 0.00 in /  0 mm
09:15 53.5 °F /  11.9 °C 49.4 °F /  9.7 °C 30.15 in /  1020.9 hPa NNE 2.3 mph /  3.7 km/h 3.5 mph /  5.6 km/h 86 % 0.00 in /  0 mm
09:21 53.7 °F /  12.1 °C 49.6 °F /  9.8 °C 30.15 in /  1020.9 hPa ENE 0.7 mph /  1.1 km/h 2.3 mph /  3.7 km/h 86 % 0.00 in /  0 mm
09:26 53.9 °F /  12.2 °C 49.5 °F /  9.7 °C 30.16 in /  1021.2 hPa North 0.4 mph /  0.6 km/h 3.5 mph /  5.6 km/h 85 % 0.00 in /  0 mm
09:31 53.8 °F /  12.1 °C 49.1 °F /  9.5 °C 30.16 in /  1021.2 hPa NNE 1.8 mph /  2.9 km/h 4.6 mph /  7.4 km/h 84 % 0.00 in /  0 mm
09:36 53.9 °F /  12.2 °C 49.5 °F /  9.7 °C 30.15 in /  1020.9 hPa NNE 0.4 mph /  0.6 km/h 2.3 mph /  3.7 km/h 85 % 0.00 in /  0 mm
09:41 53.9 °F /  12.2 °C 49.2 °F /  9.6 °C 30.16 in /  1021.2 hPa NNE 1.8 mph /  2.9 km/h 3.5 mph /  5.6 km/h 84 % 0.00 in /  0 mm
09:46 53.9 °F /  12.2 °C 49.2 °F /  9.6 °C 30.16 in /  1021.2 hPa NNE 0.7 mph /  1.1 km/h 3.5 mph /  5.6 km/h 84 % 0.00 in /  0 mm
09:51 54.3 °F /  12.4 °C 49.9 °F /  9.9 °C 30.16 in /  1021.2 hPa NNE 3.7 mph /  6 km/h 4.6 mph /  7.4 km/h 85 % 0.00 in /  0 mm
09:56 54.6 °F /  12.6 °C 49.9 °F /  9.9 °C 30.16 in /  1021.2 hPa NNE 2.6 mph /  4.2 km/h 3.5 mph /  5.6 km/h 84 % 0.00 in /  0 mm
10:01 54.7 °F /  12.6 °C 49.3 °F /  9.6 °C 30.16 in /  1021.2 hPa NE 1.5 mph /  2.4 km/h 3.5 mph /  5.6 km/h 82 % 0.00 in /  0 mm
10:06 54.6 °F /  12.6 °C 49.2 °F /  9.6 °C 30.15 in /  1020.9 hPa ENE 2.2 mph /  3.5 km/h 3.5 mph /  5.6 km/h 82 % 0.00 in /  0 mm
10:11 54.4 °F /  12.4 °C 49.3 °F /  9.6 °C 30.16 in /  1021.2 hPa NNE 3.2 mph /  5.1 km/h 4.6 mph /  7.4 km/h 83 % 0.00 in /  0 mm
10:16 54.3 °F /  12.4 °C 48.9 °F /  9.4 °C 30.16 in /  1021.2 hPa ENE 2.4 mph /  3.9 km/h 3.5 mph /  5.6 km/h 82 % 0.00 in /  0 mm
10:21 54.0 °F /  12.2 °C 48.6 °F /  9.2 °C 30.16 in /  1021.2 hPa NE 2.1 mph /  3.4 km/h 3.5 mph /  5.6 km/h 82 % 0.00 in /  0 mm
10:26 53.7 °F /  12.1 °C 48.7 °F /  9.3 °C 30.16 in /  1021.2 hPa ENE 2.0 mph /  3.2 km/h 2.3 mph /  3.7 km/h 83 % 0.00 in /  0 mm
10:31 53.3 °F /  11.8 °C 48.3 °F /  9.1 °C 30.16 in /  1021.2 hPa ENE 1.1 mph /  1.8 km/h 3.5 mph /  5.6 km/h 83 % 0.00 in /  0 mm
10:36 53.3 °F /  11.8 °C 48.6 °F /  9.2 °C 30.16 in /  1021.2 hPa ENE 2.2 mph /  3.5 km/h 3.5 mph /  5.6 km/h 84 % 0.00 in /  0 mm
10:41 53.2 °F /  11.8 °C 48.5 °F /  9.2 °C 30.16 in /  1021.2 hPa ENE 1.5 mph /  2.4 km/h 3.5 mph /  5.6 km/h 84 % 0.00 in /  0 mm
10:46 53.1 °F /  11.7 °C 48.4 °F /  9.1 °C 30.16 in /  1021.2 hPa NE 1.4 mph /  2.3 km/h 2.3 mph /  3.7 km/h 84 % 0.00 in /  0 mm
10:51 53.0 °F /  11.7 °C 48.3 °F /  9.1 °C 30.16 in /  1021.2 hPa NE 1.8 mph /  2.9 km/h 3.5 mph /  5.6 km/h 84 % 0.00 in /  0 mm
10:56 53.0 °F /  11.7 °C 48.3 °F /  9.1 °C 30.15 in /  1020.9 hPa ENE 4.2 mph /  6.8 km/h 6.9 mph /  11.1 km/h 84 % 0.00 in /  0 mm
11:01 52.7 °F /  11.5 °C 48.3 °F /  9.1 °C 30.16 in /  1021.2 hPa NE 2.7 mph /  4.3 km/h 3.5 mph /  5.6 km/h 85 % 0.00 in /  0 mm
11:06 52.7 °F /  11.5 °C 48.3 °F /  9.1 °C 30.16 in /  1021.2 hPa ENE 3.0 mph /  4.8 km/h 4.0 mph /  6.4 km/h 85 % 0.00 in /  0 mm
11:12 52.7 °F /  11.5 °C 48.6 °F /  9.2 °C 30.16 in /  1021.2 hPa NNE 1.7 mph /  2.7 km/h 3.5 mph /  5.6 km/h 86 % 0.00 in /  0 mm
11:17 52.6 °F /  11.4 °C 48.2 °F /  9 °C 30.15 in /  1020.9 hPa ENE 2.6 mph /  4.2 km/h 4.6 mph /  7.4 km/h 85 % 0.00 in /  0 mm
11:22 52.6 °F /  11.4 °C 48.5 °F /  9.2 °C 30.16 in /  1021.2 hPa ENE 4.2 mph /  6.8 km/h 4.6 mph /  7.4 km/h 86 % 0.00 in /  0 mm
11:27 52.3 °F /  11.3 °C 48.2 °F /  9 °C 30.16 in /  1021.2 hPa NE 3.2 mph /  5.1 km/h 4.6 mph /  7.4 km/h 86 % 0.00 in /  0 mm
11:32 52.3 °F /  11.3 °C 48.2 °F /  9 °C 30.16 in /  1021.2 hPa ENE 2.8 mph /  4.5 km/h 5.0 mph /  8 km/h 86 % 0.00 in /  0 mm
11:37 52.2 °F /  11.2 °C 48.1 °F /  8.9 °C 30.16 in /  1021.2 hPa ENE 2.3 mph /  3.7 km/h 3.5 mph /  5.6 km/h 86 % 0.00 in /  0 mm
11:42 52.1 °F /  11.2 °C 48.0 °F /  8.9 °C 30.16 in /  1021.2 hPa ENE 1.5 mph /  2.4 km/h 3.5 mph /  5.6 km/h 86 % 0.00 in /  0 mm
11:47 52.2 °F /  11.2 °C 48.1 °F /  8.9 °C 30.16 in /  1021.2 hPa ENE 1.4 mph /  2.3 km/h 3.0 mph /  4.8 km/h 86 % 0.00 in /  0 mm
11:52 52.1 °F /  11.2 °C 47.7 °F /  8.7 °C 30.16 in /  1021.2 hPa ENE 3.9 mph /  6.3 km/h 6.9 mph /  11.1 km/h 85 % 0.00 in /  0 mm
11:57 52.0 °F /  11.1 °C 47.6 °F /  8.7 °C 30.16 in /  1021.2 hPa ENE 3.5 mph /  5.6 km/h 5.0 mph /  8 km/h 85 % 0.00 in /  0 mm
12:02 51.9 °F /  11.1 °C 47.5 °F /  8.6 °C 30.16 in /  1021.2 hPa ENE 2.6 mph /  4.2 km/h 3.5 mph /  5.6 km/h 85 % 0.00 in /  0 mm
12:07 51.8 °F /  11 °C 47.4 °F /  8.6 °C 30.15 in /  1020.9 hPa ENE 2.6 mph /  4.2 km/h 6.9 mph /  11.1 km/h 85 % 0.00 in /  0 mm
12:12 51.7 °F /  10.9 °C 47.0 °F /  8.3 °C 30.15 in /  1020.9 hPa ENE 3.3 mph /  5.3 km/h 4.6 mph /  7.4 km/h 84 % 0.00 in /  0 mm
12:17 51.7 °F /  10.9 °C 47.3 °F /  8.5 °C 30.15 in /  1020.9 hPa ENE 2.0 mph /  3.2 km/h 5.0 mph /  8 km/h 85 % 0.00 in /  0 mm
12:22 51.7 °F /  10.9 °C 47.3 °F /  8.5 °C 30.15 in /  1020.9 hPa ENE 1.0 mph /  1.6 km/h 5.0 mph /  8 km/h 85 % 0.00 in /  0 mm
12:27 52.0 °F /  11.1 °C 47.6 °F /  8.7 °C 30.15 in /  1020.9 hPa ENE 1.8 mph /  2.9 km/h 3.5 mph /  5.6 km/h 85 % 0.00 in /  0 mm
12:32 52.3 °F /  11.3 °C 47.3 °F /  8.5 °C 30.15 in /  1020.9 hPa ENE 2.0 mph /  3.2 km/h 5.0 mph /  8 km/h 83 % 0.00 in /  0 mm
12:37 52.6 °F /  11.4 °C 46.6 °F /  8.1 °C 30.15 in /  1020.9 hPa ENE 2.0 mph /  3.2 km/h 5.0 mph /  8 km/h 80 % 0.00 in /  0 mm
12:42 53.0 °F /  11.7 °C 46.0 °F /  7.8 °C 30.15 in /  1020.9 hPa ENE 3.0 mph /  4.8 km/h 5.0 mph /  8 km/h 77 % 0.00 in /  0 mm
12:47 53.3 °F /  11.8 °C 46.0 °F /  7.8 °C 30.15 in /  1020.9 hPa ENE 2.0 mph /  3.2 km/h 3.0 mph /  4.8 km/h 76 % 0.00 in /  0 mm
12:52 53.7 °F /  12.1 °C 45.3 °F /  7.4 °C 30.14 in /  1020.5 hPa ENE 2.0 mph /  3.2 km/h 5.0 mph /  8 km/h 73 % 0.00 in /  0 mm
12:57 53.9 °F /  12.2 °C 45.4 °F /  7.4 °C 30.13 in /  1020.2 hPa NE 5.0 mph /  8 km/h 6.9 mph /  11.1 km/h 73 % 0.00 in /  0 mm
13:02 53.9 °F /  12.2 °C 45.4 °F /  7.4 °C 30.13 in /  1020.2 hPa ENE 4.4 mph /  7.1 km/h 6.9 mph /  11.1 km/h 73 % 0.00 in /  0 mm
13:07 54.0 °F /  12.2 °C 46.3 °F /  7.9 °C 30.13 in /  1020.2 hPa ENE 3.4 mph /  5.5 km/h 6.9 mph /  11.1 km/h 75 % 0.00 in /  0 mm
13:12 54.2 °F /  12.3 °C 47.8 °F /  8.8 °C 30.13 in /  1020.2 hPa NNE 2.4 mph /  3.9 km/h 3.5 mph /  5.6 km/h 79 % 0.00 in /  0 mm
13:17 54.6 °F /  12.6 °C 48.6 °F /  9.2 °C 30.13 in /  1020.2 hPa NNE 4.6 mph /  7.4 km/h 8.1 mph /  13 km/h 80 % 0.00 in /  0 mm
13:22 54.7 °F /  12.6 °C 49.0 °F /  9.4 °C 30.13 in /  1020.2 hPa North 2.7 mph /  4.3 km/h 4.0 mph /  6.4 km/h 81 % 0.00 in /  0 mm
13:27 54.8 °F /  12.7 °C 49.1 °F /  9.5 °C 30.13 in /  1020.2 hPa NE 2.1 mph /  3.4 km/h 3.5 mph /  5.6 km/h 81 % 0.00 in /  0 mm
13:32 54.8 °F /  12.7 °C 49.4 °F /  9.7 °C 30.13 in /  1020.2 hPa ENE 1.8 mph /  2.9 km/h 4.6 mph /  7.4 km/h 82 % 0.00 in /  0 mm
13:37 54.4 °F /  12.4 °C 48.4 °F /  9.1 °C 30.14 in /  1020.5 hPa ENE 2.0 mph /  3.2 km/h 3.5 mph /  5.6 km/h 80 % 0.00 in /  0 mm
13:42 54.1 °F /  12.3 °C 47.7 °F /  8.7 °C 30.14 in /  1020.5 hPa ENE 1.0 mph /  1.6 km/h 2.3 mph /  3.7 km/h 79 % 0.00 in /  0 mm
13:47 54.1 °F /  12.3 °C 47.7 °F /  8.7 °C 30.13 in /  1020.2 hPa North 2.0 mph /  3.2 km/h 4.0 mph /  6.4 km/h 79 % 0.00 in /  0 mm
13:48 54.1 °F /  12.3 °C 47.7 °F /  8.7 °C 30.13 in /  1020.2 hPa NNE 3.3 mph /  5.3 km/h 5.0 mph /  8 km/h 79 % 0.00 in /  0 mm
13:53 54.1 °F /  12.3 °C 47.7 °F /  8.7 °C 30.13 in /  1020.2 hPa ENE 3.4 mph /  5.5 km/h 5.0 mph /  8 km/h 79 % 0.00 in /  0 mm
13:58 54.2 °F /  12.3 °C 48.5 °F /  9.2 °C 30.13 in /  1020.2 hPa North 1.6 mph /  2.6 km/h 4.6 mph /  7.4 km/h 81 % 0.00 in /  0 mm
14:03 54.3 °F /  12.4 °C 48.9 °F /  9.4 °C 30.14 in /  1020.5 hPa NNE 1.5 mph /  2.4 km/h 3.5 mph /  5.6 km/h 82 % 0.00 in /  0 mm
14:08 54.3 °F /  12.4 °C 48.6 °F /  9.2 °C 30.13 in /  1020.2 hPa ENE 1.5 mph /  2.4 km/h 4.6 mph /  7.4 km/h 81 % 0.00 in /  0 mm
14:13 53.9 °F /  12.2 °C 47.9 °F /  8.8 °C 30.13 in /  1020.2 hPa NE 3.3 mph /  5.3 km/h 4.6 mph /  7.4 km/h 80 % 0.00 in /  0 mm
14:18 53.7 °F /  12.1 °C 47.7 °F /  8.7 °C 30.13 in /  1020.2 hPa ENE 4.7 mph /  7.6 km/h 6.9 mph /  11.1 km/h 80 % 0.00 in /  0 mm
14:23 53.4 °F /  11.9 °C 47.7 °F /  8.7 °C 30.13 in /  1020.2 hPa ENE 3.7 mph /  6 km/h 6.9 mph /  11.1 km/h 81 % 0.00 in /  0 mm
14:28 53.1 °F /  11.7 °C 47.1 °F /  8.4 °C 30.13 in /  1020.2 hPa ENE 1.2 mph /  1.9 km/h 3.5 mph /  5.6 km/h 80 % 0.00 in /  0 mm
14:33 53.0 °F /  11.7 °C 47.0 °F /  8.3 °C 30.13 in /  1020.2 hPa NE 2.2 mph /  3.5 km/h 3.5 mph /  5.6 km/h 80 % 0.00 in /  0 mm
14:38 53.0 °F /  11.7 °C 45.6 °F /  7.6 °C 30.13 in /  1020.2 hPa East 1.9 mph /  3.1 km/h 4.6 mph /  7.4 km/h 76 % 0.00 in /  0 mm
14:43 52.8 °F /  11.6 °C 45.8 °F /  7.7 °C 30.13 in /  1020.2 hPa ENE 2.1 mph /  3.4 km/h 3.5 mph /  5.6 km/h 77 % 0.00 in /  0 mm
14:48 52.8 °F /  11.6 °C 45.1 °F /  7.3 °C 30.13 in /  1020.2 hPa ENE 1.6 mph /  2.6 km/h 3.5 mph /  5.6 km/h 75 % 0.00 in /  0 mm
14:53 52.8 °F /  11.6 °C 45.4 °F /  7.4 °C 30.13 in /  1020.2 hPa ENE 1.2 mph /  1.9 km/h 2.3 mph /  3.7 km/h 76 % 0.00 in /  0 mm
14:58 52.9 °F /  11.6 °C 45.2 °F /  7.3 °C 30.13 in /  1020.2 hPa East 2.3 mph /  3.7 km/h 3.5 mph /  5.6 km/h 75 % 0.00 in /  0 mm
15:03 52.9 °F /  11.6 °C 45.5 °F /  7.5 °C 30.13 in /  1020.2 hPa East 1.4 mph /  2.3 km/h 3.5 mph /  5.6 km/h 76 % 0.00 in /  0 mm
15:08 53.0 °F /  11.7 °C 45.3 °F /  7.4 °C 30.13 in /  1020.2 hPa East 0.9 mph /  1.4 km/h 3.0 mph /  4.8 km/h 75 % 0.00 in /  0 mm
15:13 53.2 °F /  11.8 °C 45.5 °F /  7.5 °C 30.13 in /  1020.2 hPa East 2.0 mph /  3.2 km/h 3.5 mph /  5.6 km/h 75 % 0.00 in /  0 mm
15:18 53.3 °F /  11.8 °C 45.6 °F /  7.6 °C 30.13 in /  1020.2 hPa East 1.3 mph /  2.1 km/h 2.3 mph /  3.7 km/h 75 % 0.00 in /  0 mm
15:23 53.4 °F /  11.9 °C 45.3 °F /  7.4 °C 30.12 in /  1019.9 hPa ENE 1.5 mph /  2.4 km/h 3.5 mph /  5.6 km/h 74 % 0.00 in /  0 mm
15:28 53.5 °F /  11.9 °C 45.4 °F /  7.4 °C 30.12 in /  1019.9 hPa ENE 2.2 mph /  3.5 km/h 3.5 mph /  5.6 km/h 74 % 0.00 in /  0 mm
15:40 53.5 °F /  11.9 °C 45.8 °F /  7.7 °C 30.12 in /  1019.9 hPa ENE 3.0 mph /  4.8 km/h 5.0 mph /  8 km/h 75 % 0.00 in /  0 mm
15:45 53.4 °F /  11.9 °C 46.0 °F /  7.8 °C 30.12 in /  1019.9 hPa ENE 2.0 mph /  3.2 km/h 5.0 mph /  8 km/h 76 % 0.00 in /  0 mm
15:50 53.3 °F /  11.8 °C 46.3 °F /  7.9 °C 30.12 in /  1019.9 hPa ENE 3.0 mph /  4.8 km/h 5.0 mph /  8 km/h 77 % 0.00 in /  0 mm
15:55 53.2 °F /  11.8 °C 46.2 °F /  7.9 °C 30.12 in /  1019.9 hPa ENE 1.0 mph /  1.6 km/h 5.0 mph /  8 km/h 77 % 0.00 in /  0 mm
16:05 53.2 °F /  11.8 °C 47.2 °F /  8.4 °C 30.12 in /  1019.9 hPa ENE 1.0 mph /  1.6 km/h 3.0 mph /  4.8 km/h 80 % 0.00 in /  0 mm
16:10 53.3 °F /  11.8 °C 47.3 °F /  8.5 °C 30.11 in /  1019.5 hPa ENE 1.0 mph /  1.6 km/h 3.0 mph /  4.8 km/h 80 % 0.00 in /  0 mm
16:15 53.3 °F /  11.8 °C 47.3 °F /  8.5 °C 30.11 in /  1019.5 hPa ENE 2.0 mph /  3.2 km/h 3.0 mph /  4.8 km/h 80 % 0.00 in /  0 mm
16:20 53.4 °F /  11.9 °C 47.4 °F /  8.6 °C 30.11 in /  1019.5 hPa Calm   3.0 mph /  4.8 km/h 80 % 0.00 in /  0 mm
16:25 53.5 °F /  11.9 °C 47.5 °F /  8.6 °C 30.11 in /  1019.5 hPa NNE 3.0 mph /  4.8 km/h 6.0 mph /  9.7 km/h 80 % 0.00 in /  0 mm
16:30 53.5 °F /  11.9 °C 47.5 °F /  8.6 °C 30.12 in /  1019.9 hPa NNE 2.0 mph /  3.2 km/h 5.0 mph /  8 km/h 80 % 0.00 in /  0 mm
16:35 53.4 °F /  11.9 °C 47.0 °F /  8.3 °C 30.12 in /  1019.9 hPa NNE 3.0 mph /  4.8 km/h 7.0 mph /  11.3 km/h 79 % 0.00 in /  0 mm
16:40 53.4 °F /  11.9 °C 47.4 °F /  8.6 °C 30.12 in /  1019.9 hPa NNE 3.0 mph /  4.8 km/h 6.0 mph /  9.7 km/h 80 % 0.00 in /  0 mm
16:45 53.3 °F /  11.8 °C 47.3 °F /  8.5 °C 30.12 in /  1019.9 hPa NNE 2.0 mph /  3.2 km/h 5.0 mph /  8 km/h 80 % 0.00 in /  0 mm
16:50 53.2 °F /  11.8 °C 47.2 °F /  8.4 °C 30.12 in /  1019.9 hPa North 2.0 mph /  3.2 km/h 4.0 mph /  6.4 km/h 80 % 0.00 in /  0 mm
16:55 53.1 °F /  11.7 °C 47.4 °F /  8.6 °C 30.12 in /  1019.9 hPa Calm   3.0 mph /  4.8 km/h 81 % 0.00 in /  0 mm
17:05 53.0 °F /  11.7 °C 47.3 °F /  8.5 °C 30.12 in /  1019.9 hPa Calm   1.0 mph /  1.6 km/h 81 % 0.00 in /  0 mm
17:10 52.9 °F /  11.6 °C 47.2 °F /  8.4 °C 30.13 in /  1020.2 hPa North 1.0 mph /  1.6 km/h 2.0 mph /  3.2 km/h 81 % 0.00 in /  0 mm
17:16 52.7 °F /  11.5 °C 47.0 °F /  8.3 °C 30.12 in /  1019.9 hPa ENE 3.0 mph /  4.8 km/h 3.5 mph /  5.6 km/h 81 % 0.00 in /  0 mm
17:21 52.7 °F /  11.5 °C 47.4 °F /  8.6 °C 30.11 in /  1019.5 hPa ENE 1.1 mph /  1.8 km/h 2.3 mph /  3.7 km/h 82 % 0.00 in /  0 mm
17:26 52.7 °F /  11.5 °C 47.4 °F /  8.6 °C 30.12 in /  1019.9 hPa ENE 0.8 mph /  1.3 km/h 2.3 mph /  3.7 km/h 82 % 0.00 in /  0 mm
17:31 52.6 °F /  11.4 °C 47.3 °F /  8.5 °C 30.11 in /  1019.5 hPa ENE 3.1 mph /  5 km/h 4.6 mph /  7.4 km/h 82 % 0.00 in /  0 mm
17:36 52.5 °F /  11.4 °C 47.2 °F /  8.4 °C 30.11 in /  1019.5 hPa NE 3.3 mph /  5.3 km/h 5.0 mph /  8 km/h 82 % 0.00 in /  0 mm
17:42 52.4 °F /  11.3 °C 47.1 °F /  8.4 °C 30.12 in /  1019.9 hPa ENE 2.3 mph /  3.7 km/h 4.6 mph /  7.4 km/h 82 % 0.00 in /  0 mm
17:47 52.2 °F /  11.2 °C 47.2 °F /  8.4 °C 30.12 in /  1019.9 hPa ENE 2.0 mph /  3.2 km/h 3.5 mph /  5.6 km/h 83 % 0.00 in /  0 mm
17:51 52.1 °F /  11.2 °C 47.4 °F /  8.6 °C 30.11 in /  1019.5 hPa ENE 2.1 mph /  3.4 km/h 3.0 mph /  4.8 km/h 84 % 0.00 in /  0 mm
17:56 52.0 °F /  11.1 °C 47.3 °F /  8.5 °C 30.11 in /  1019.5 hPa East 2.8 mph /  4.5 km/h 3.5 mph /  5.6 km/h 84 % 0.00 in /  0 mm
18:02 51.9 °F /  11.1 °C 47.5 °F /  8.6 °C 30.12 in /  1019.9 hPa ENE 2.1 mph /  3.4 km/h 3.5 mph /  5.6 km/h 85 % 0.00 in /  0 mm
18:07 51.7 °F /  10.9 °C 47.3 °F /  8.5 °C 30.12 in /  1019.9 hPa East 2.8 mph /  4.5 km/h 4.6 mph /  7.4 km/h 85 % 0.00 in /  0 mm
18:12 51.6 °F /  10.9 °C 47.5 °F /  8.6 °C 30.12 in /  1019.9 hPa East 0.9 mph /  1.4 km/h 2.3 mph /  3.7 km/h 86 % 0.00 in /  0 mm
18:17 51.5 °F /  10.8 °C 47.5 °F /  8.6 °C 30.11 in /  1019.5 hPa ENE 1.7 mph /  2.7 km/h 2.3 mph /  3.7 km/h 86 % 0.00 in /  0 mm
18:22 51.4 °F /  10.8 °C 47.0 °F /  8.3 °C 30.11 in /  1019.5 hPa ENE 0.8 mph /  1.3 km/h 3.0 mph /  4.8 km/h 85 % 0.00 in /  0 mm
18:27 51.4 °F /  10.8 °C 47.0 °F /  8.3 °C 30.12 in /  1019.9 hPa ENE 0.8 mph /  1.3 km/h 2.3 mph /  3.7 km/h 85 % 0.00 in /  0 mm
18:32 51.3 °F /  10.7 °C 46.9 °F /  8.3 °C 30.12 in /  1019.9 hPa ENE 0.8 mph /  1.3 km/h 2.3 mph /  3.7 km/h 85 % 0.00 in /  0 mm
18:37 51.2 °F /  10.7 °C 47.2 °F /  8.4 °C 30.12 in /  1019.9 hPa Calm     86 % 0.00 in /  0 mm
18:42 51.2 °F /  10.7 °C 47.5 °F /  8.6 °C 30.12 in /  1019.9 hPa ENE 1.0 mph /  1.6 km/h 3.5 mph /  5.6 km/h 87 % 0.00 in /  0 mm
18:47 51.1 °F /  10.6 °C 47.4 °F /  8.6 °C 30.12 in /  1019.9 hPa ENE 0.7 mph /  1.1 km/h 1.2 mph /  1.9 km/h 87 % 0.00 in /  0 mm
18:52 51.0 °F /  10.6 °C 47.6 °F /  8.7 °C 30.12 in /  1019.9 hPa ENE 0.5 mph /  0.8 km/h 1.2 mph /  1.9 km/h 88 % 0.00 in /  0 mm
18:57 51.0 °F /  10.6 °C 47.6 °F /  8.7 °C 30.12 in /  1019.9 hPa Calm     88 % 0.00 in /  0 mm
19:02 51.0 °F /  10.6 °C 47.9 °F /  8.8 °C 30.12 in /  1019.9 hPa Calm     89 % 0.00 in /  0 mm
19:08 50.9 °F /  10.5 °C 47.8 °F /  8.8 °C 30.13 in /  1020.2 hPa Calm     89 % 0.00 in /  0 mm
19:13 50.9 °F /  10.5 °C 47.8 °F /  8.8 °C 30.13 in /  1020.2 hPa ENE 0.2 mph /  0.3 km/h 1.2 mph /  1.9 km/h 89 % 0.00 in /  0 mm
19:18 50.9 °F /  10.5 °C 47.8 °F /  8.8 °C 30.13 in /  1020.2 hPa NE 1.5 mph /  2.4 km/h 3.5 mph /  5.6 km/h 89 % 0.00 in /  0 mm
19:23 50.8 °F /  10.4 °C 47.7 °F /  8.7 °C 30.13 in /  1020.2 hPa NE 1.4 mph /  2.3 km/h 3.5 mph /  5.6 km/h 89 % 0.00 in /  0 mm
19:28 50.7 °F /  10.4 °C 47.6 °F /  8.7 °C 30.12 in /  1019.9 hPa Calm   1.2 mph /  1.9 km/h 89 % 0.00 in /  0 mm
19:33 50.6 °F /  10.3 °C 47.8 °F /  8.8 °C 30.12 in /  1019.9 hPa NE 0.3 mph /  0.5 km/h 1.2 mph /  1.9 km/h 90 % 0.00 in /  0 mm
19:38 50.5 °F /  10.3 °C 47.7 °F /  8.7 °C 30.12 in /  1019.9 hPa NE 0.2 mph /  0.3 km/h 2.3 mph /  3.7 km/h 90 % 0.01 in /  0.25 mm
19:43 50.5 °F /  10.3 °C 47.7 °F /  8.7 °C 30.12 in /  1019.9 hPa NE 0.9 mph /  1.4 km/h 3.5 mph /  5.6 km/h 90 % 0.01 in /  0.25 mm
19:48 50.4 °F /  10.2 °C 47.6 °F /  8.7 °C 30.12 in /  1019.9 hPa Calm   1.2 mph /  1.9 km/h 90 % 0.01 in /  0.25 mm
19:53 50.4 °F /  10.2 °C 47.9 °F /  8.8 °C 30.11 in /  1019.5 hPa Calm     91 % 0.01 in /  0.25 mm
19:58 50.3 °F /  10.2 °C 47.8 °F /  8.8 °C 30.11 in /  1019.5 hPa Calm     91 % 0.01 in /  0.25 mm
20:03 50.3 °F /  10.2 °C 47.8 °F /  8.8 °C 30.11 in /  1019.5 hPa NE 0.1 mph /  0.2 km/h 2.3 mph /  3.7 km/h 91 % 0.01 in /  0.25 mm
20:08 50.3 °F /  10.2 °C 47.8 °F /  8.8 °C 30.11 in /  1019.5 hPa Calm     91 % 0.01 in /  0.25 mm
20:13 50.2 °F /  10.1 °C 47.7 °F /  8.7 °C 30.11 in /  1019.5 hPa Calm     91 % 0.01 in /  0.25 mm
20:18 50.2 °F /  10.1 °C 47.7 °F /  8.7 °C 30.12 in /  1019.9 hPa NE 0.1 mph /  0.2 km/h 1.2 mph /  1.9 km/h 91 % 0.01 in /  0.25 mm
20:23 50.2 °F /  10.1 °C 47.7 °F /  8.7 °C 30.11 in /  1019.5 hPa Calm     91 % 0.01 in /  0.25 mm
20:28 50.2 °F /  10.1 °C 47.7 °F /  8.7 °C 30.11 in /  1019.5 hPa Calm     91 % 0.01 in /  0.25 mm
20:33 50.2 °F /  10.1 °C 47.4 °F /  8.6 °C 30.11 in /  1019.5 hPa Calm     90 % 0.01 in /  0.25 mm
20:38 50.2 °F /  10.1 °C 47.4 °F /  8.6 °C 30.11 in /  1019.5 hPa NE 1.4 mph /  2.3 km/h 2.3 mph /  3.7 km/h 90 % 0.00 in /  0 mm
20:43 50.2 °F /  10.1 °C 47.4 °F /  8.6 °C 30.11 in /  1019.5 hPa NE 0.1 mph /  0.2 km/h 1.2 mph /  1.9 km/h 90 % 0.00 in /  0 mm
20:48 50.2 °F /  10.1 °C 47.4 °F /  8.6 °C 30.12 in /  1019.9 hPa NE 1.7 mph /  2.7 km/h 3.0 mph /  4.8 km/h 90 % 0.00 in /  0 mm
20:53 50.2 °F /  10.1 °C 46.5 °F /  8.1 °C 30.12 in /  1019.9 hPa ENE 2.4 mph /  3.9 km/h 3.5 mph /  5.6 km/h 87 % 0.00 in /  0 mm
20:58 50.2 °F /  10.1 °C 46.2 °F /  7.9 °C 30.12 in /  1019.9 hPa East 3.2 mph /  5.1 km/h 5.0 mph /  8 km/h 86 % 0.00 in /  0 mm
21:03 50.3 °F /  10.2 °C 46.3 °F /  7.9 °C 30.12 in /  1019.9 hPa ENE 2.6 mph /  4.2 km/h 3.5 mph /  5.6 km/h 86 % 0.00 in /  0 mm
21:09 50.3 °F /  10.2 °C 46.0 °F /  7.8 °C 30.11 in /  1019.5 hPa ENE 3.4 mph /  5.5 km/h 4.6 mph /  7.4 km/h 85 % 0.00 in /  0 mm
21:14 50.3 °F /  10.2 °C 46.3 °F /  7.9 °C 30.11 in /  1019.5 hPa ENE 3.2 mph /  5.1 km/h 4.6 mph /  7.4 km/h 86 % 0.00 in /  0 mm
21:16 50.3 °F /  10.2 °C 46.3 °F /  7.9 °C 30.11 in /  1019.5 hPa ENE 4.0 mph /  6.4 km/h 6.0 mph /  9.7 km/h 86 % 0.00 in /  0 mm
21:21 50.2 °F /  10.1 °C 46.5 °F /  8.1 °C 30.11 in /  1019.5 hPa ENE 2.7 mph /  4.3 km/h 3.5 mph /  5.6 km/h 87 % 0.00 in /  0 mm
21:26 50.1 °F /  10.1 °C 46.7 °F /  8.2 °C 30.12 in /  1019.9 hPa ENE 2.7 mph /  4.3 km/h 4.0 mph /  6.4 km/h 88 % 0.00 in /  0 mm
21:31 50.0 °F /  10 °C 46.6 °F /  8.1 °C 30.12 in /  1019.9 hPa ENE 2.3 mph /  3.7 km/h 3.5 mph /  5.6 km/h 88 % 0.00 in /  0 mm
21:37 49.9 °F /  9.9 °C 46.8 °F /  8.2 °C 30.12 in /  1019.9 hPa ENE 7.2 mph /  11.6 km/h 12.7 mph /  20.4 km/h 89 % 0.00 in /  0 mm
21:42 49.7 °F /  9.8 °C 46.9 °F /  8.3 °C 30.12 in /  1019.9 hPa ENE 6.4 mph /  10.3 km/h 11.5 mph /  18.5 km/h 90 % 0.00 in /  0 mm
21:47 49.6 °F /  9.8 °C 46.8 °F /  8.2 °C 30.12 in /  1019.9 hPa ENE 4.1 mph /  6.6 km/h 5.8 mph /  9.3 km/h 90 % 0.00 in /  0 mm
21:52 49.5 °F /  9.7 °C 47.0 °F /  8.3 °C 30.12 in /  1019.9 hPa East 4.2 mph /  6.8 km/h 6.9 mph /  11.1 km/h 91 % 0.00 in /  0 mm
21:57 49.4 °F /  9.7 °C 46.9 °F /  8.3 °C 30.12 in /  1019.9 hPa ENE 3.4 mph /  5.5 km/h 4.6 mph /  7.4 km/h 91 % 0.00 in /  0 mm
22:02 49.3 °F /  9.6 °C 46.8 °F /  8.2 °C 30.12 in /  1019.9 hPa East 4.4 mph /  7.1 km/h 6.9 mph /  11.1 km/h 91 % 0.00 in /  0 mm
22:07 49.2 °F /  9.6 °C 46.7 °F /  8.2 °C 30.12 in /  1019.9 hPa ENE 4.0 mph /  6.4 km/h 6.9 mph /  11.1 km/h 91 % 0.00 in /  0 mm
22:12 49.1 °F /  9.5 °C 46.6 °F /  8.1 °C 30.12 in /  1019.9 hPa East 5.0 mph /  8 km/h 8.1 mph /  13 km/h 91 % 0.00 in /  0 mm
22:17 49.1 °F /  9.5 °C 46.9 °F /  8.3 °C 30.12 in /  1019.9 hPa ENE 4.2 mph /  6.8 km/h 5.8 mph /  9.3 km/h 92 % 0.00 in /  0 mm
22:22 49.0 °F /  9.4 °C 46.8 °F /  8.2 °C 30.12 in /  1019.9 hPa East 3.6 mph /  5.8 km/h 6.0 mph /  9.7 km/h 92 % 0.00 in /  0 mm
22:27 48.9 °F /  9.4 °C 46.7 °F /  8.2 °C 30.12 in /  1019.9 hPa ENE 3.5 mph /  5.6 km/h 6.9 mph /  11.1 km/h 92 % 0.00 in /  0 mm
22:32 48.9 °F /  9.4 °C 46.7 °F /  8.2 °C 30.12 in /  1019.9 hPa ENE 3.7 mph /  6 km/h 5.8 mph /  9.3 km/h 92 % 0.00 in /  0 mm
22:37 48.9 °F /  9.4 °C 46.7 °F /  8.2 °C 30.12 in /  1019.9 hPa ENE 4.3 mph /  6.9 km/h 6.9 mph /  11.1 km/h 92 % 0.00 in /  0 mm
22:42 48.8 °F /  9.3 °C 46.6 °F /  8.1 °C 30.12 in /  1019.9 hPa East 4.9 mph /  7.9 km/h 6.9 mph /  11.1 km/h 92 % 0.00 in /  0 mm
22:47 48.8 °F /  9.3 °C 46.6 °F /  8.1 °C 30.12 in /  1019.9 hPa ENE 3.5 mph /  5.6 km/h 4.6 mph /  7.4 km/h 92 % 0.00 in /  0 mm
22:52 48.8 °F /  9.3 °C 46.6 °F /  8.1 °C 30.12 in /  1019.9 hPa ENE 3.2 mph /  5.1 km/h 3.5 mph /  5.6 km/h 92 % 0.00 in /  0 mm
22:57 48.8 °F /  9.3 °C 46.9 °F /  8.3 °C 30.12 in /  1019.9 hPa East 3.9 mph /  6.3 km/h 6.0 mph /  9.7 km/h 93 % 0.00 in /  0 mm
23:02 48.7 °F /  9.3 °C 46.8 °F /  8.2 °C 30.12 in /  1019.9 hPa East 3.8 mph /  6.1 km/h 4.6 mph /  7.4 km/h 93 % 0.00 in /  0 mm
23:07 48.7 °F /  9.3 °C 46.8 °F /  8.2 °C 30.12 in /  1019.9 hPa East 3.8 mph /  6.1 km/h 6.9 mph /  11.1 km/h 93 % 0.00 in /  0 mm
23:12 48.7 °F /  9.3 °C 46.8 °F /  8.2 °C 30.12 in /  1019.9 hPa East 3.6 mph /  5.8 km/h 6.0 mph /  9.7 km/h 93 % 0.00 in /  0 mm
23:18 48.7 °F /  9.3 °C 46.8 °F /  8.2 °C 30.12 in /  1019.9 hPa ENE 3.6 mph /  5.8 km/h 4.6 mph /  7.4 km/h 93 % 0.00 in /  0 mm
23:23 48.6 °F /  9.2 °C 46.7 °F /  8.2 °C 30.11 in /  1019.5 hPa East 3.3 mph /  5.3 km/h 5.0 mph /  8 km/h 93 % 0.00 in /  0 mm
23:28 48.6 °F /  9.2 °C 46.7 °F /  8.2 °C 30.11 in /  1019.5 hPa East 3.6 mph /  5.8 km/h 5.8 mph /  9.3 km/h 93 % 0.00 in /  0 mm
23:33 48.6 °F /  9.2 °C 46.7 °F /  8.2 °C 30.11 in /  1019.5 hPa ENE 4.7 mph /  7.6 km/h 6.9 mph /  11.1 km/h 93 % 0.00 in /  0 mm
23:38 48.5 °F /  9.2 °C 46.9 °F /  8.3 °C 30.11 in /  1019.5 hPa East 4.2 mph /  6.8 km/h 5.8 mph /  9.3 km/h 94 % 0.00 in /  0 mm
23:43 48.5 °F /  9.2 °C 46.9 °F /  8.3 °C 30.11 in /  1019.5 hPa ENE 4.6 mph /  7.4 km/h 5.8 mph /  9.3 km/h 94 % 0.00 in /  0 mm
23:48 48.5 °F /  9.2 °C 46.9 °F /  8.3 °C 30.11 in /  1019.5 hPa East 4.2 mph /  6.8 km/h 5.8 mph /  9.3 km/h 94 % 0.00 in /  0 mm
23:53 48.5 °F /  9.2 °C 46.9 °F /  8.3 °C 30.11 in /  1019.5 hPa East 3.7 mph /  6 km/h 5.8 mph /  9.3 km/h 94 % 0.00 in /  0 mm
23:58 48.4 °F /  9.1 °C 46.8 °F /  8.2 °C 30.11 in /  1019.5 hPa East 4.0 mph /  6.4 km/h 8.1 mph /  13 km/h 94 % 0.00 in /  0 mm
Crab Meadow Weather
Compliments of Weather Underground - 3 mb

Script developed by  Jim McMurry - jmcmurry@mwt.net Adapted for the template by  Wim van der Kuil - Leuven-Template.eu

Weather Terms: Downburst - A strong downdraft from a thunderstorm resulting in an outward burst of damaging winds on or near the ground. Downburst winds are often 50 to 100 mph and in a few cases, 100 to 150 mph. They can do as much damage as a small tornado.